Time;durP1;ratioP1;P1;durP2;ratioP2;P2;SDS_P1;SDS_P2;PMS_P1;PMS_P2;Temp;Humidity;BMP_temperature;BMP_pressure;BME280_temperature;BME280_humidity;BME280_pressure;Samples;Min_cycle;Max_cycle;Signal;HPM_P1;HPM_P2
2022/05/24 00:02:45;;;;;;;2.22;1.27;;;;;;;16.11;69.22;99383.44;5012260;28;20112;-80
2022/05/24 00:05:51;;;;;;;3.50;1.10;;;;;;;16.14;69.59;99380.50;5011803;28;20524;-80
2022/05/24 00:08:54;;;;;;;2.90;1.10;;;;;;;16.46;68.87;99375.69;5012057;28;20509;-80
2022/05/24 00:11:58;;;;;;;3.30;1.15;;;;;;;16.65;69.51;99379.19;5010422;28;20091;-80
2022/05/24 00:15:20;;;;;;;3.00;0.90;;;;;;;16.74;69.49;99389.69;5012382;28;20153;-81
2022/05/24 00:18:27;;;;;;;2.38;0.90;;;;;;;16.80;69.77;99393.59;5012014;28;20452;-81
2022/05/24 00:21:30;;;;;;;2.20;0.80;;;;;;;16.74;69.80;99394.97;4997674;28;20441;-81
2022/05/24 00:24:34;;;;;;;3.17;1.15;;;;;;;16.46;70.62;99407.34;5011778;28;20052;-81
2022/05/24 00:27:37;;;;;;;5.75;1.00;;;;;;;16.54;71.39;99397.88;5013268;28;20045;-80
2022/05/24 00:30:42;;;;;;;5.40;1.17;;;;;;;16.56;71.76;99398.53;5003230;28;20048;-80
2022/05/24 00:33:46;;;;;;;3.17;0.80;;;;;;;16.45;71.95;99384.56;5015745;28;20052;-80
2022/05/24 00:36:49;;;;;;;6.97;0.90;;;;;;;16.41;72.70;99393.75;5015129;28;20076;-80
2022/05/24 00:39:52;;;;;;;2.35;0.80;;;;;;;16.38;72.93;99394.03;5013971;28;20044;-80
2022/05/24 00:42:56;;;;;;;4.53;0.73;;;;;;;16.28;73.03;99396.72;5015407;28;20099;-80
2022/05/24 00:46:03;;;;;;;3.75;0.90;;;;;;;16.26;72.91;99389.91;5015091;28;20458;-80
2022/05/24 00:49:35;;;;;;;5.30;0.82;;;;;;;16.15;73.66;99403.28;5015112;28;20049;-80
2022/05/24 00:52:53;;;;;;;2.47;0.65;;;;;;;16.08;73.72;99397.75;5015007;28;20044;-80
2022/05/24 00:56:04;;;;;;;4.43;0.80;;;;;;;16.09;73.26;99393.31;5015127;28;20142;-80
2022/05/24 00:59:19;;;;;;;4.07;0.80;;;;;;;15.94;74.53;99396.38;5014912;28;20079;-80
2022/05/24 01:02:22;;;;;;;1.33;0.60;;;;;;;15.96;74.52;99410.25;5015030;28;20104;-80
2022/05/24 01:05:29;;;;;;;1.88;0.70;;;;;;;15.93;74.02;99423.72;5014617;28;20052;-80
2022/05/24 01:08:33;;;;;;;7.80;1.00;;;;;;;15.95;74.50;99432.34;5014676;28;20092;-80
2022/05/24 01:11:42;;;;;;;2.50;0.77;;;;;;;15.82;75.14;99437.03;4994949;28;20520;-80
2022/05/24 01:14:47;;;;;;;2.05;0.90;;;;;;;15.83;75.56;99430.00;4995324;28;20092;-80
2022/05/24 01:17:53;;;;;;;5.28;0.70;;;;;;;15.80;75.20;99423.19;4995307;28;20110;-80
2022/05/24 01:21:03;;;;;;;3.50;1.13;;;;;;;15.78;75.53;99406.69;4995082;28;20168;-80
2022/05/24 01:24:13;;;;;;;2.90;0.80;;;;;;;15.83;75.49;99412.38;4994749;28;20048;-80
2022/05/24 01:27:17;;;;;;;4.63;1.08;;;;;;;15.82;75.49;99408.06;4994914;28;20085;-80
2022/05/24 01:30:21;;;;;;;1.83;0.80;;;;;;;15.75;75.90;99417.50;4994052;28;20525;-80
2022/05/24 01:36:46;;;;;;;7.38;0.80;;;;;;;15.78;75.50;99396.13;4994673;28;20044;-80
2022/05/24 01:39:57;;;;;;;4.40;1.70;;;;;;;15.75;75.55;99394.63;5005171;28;20048;-80
2022/05/24 01:43:01;;;;;;;7.93;1.60;;;;;;;15.66;75.76;99395.41;5014058;28;20501;-80
2022/05/24 01:46:10;;;;;;;2.22;0.90;;;;;;;15.72;75.46;99389.63;5013987;28;20101;-80
2022/05/24 01:49:25;;;;;;;5.45;1.05;;;;;;;15.70;75.59;99399.50;5014020;28;20398;-80
2022/05/24 01:52:38;;;;;;;1.75;0.68;;;;;;;15.67;75.83;99401.56;5013727;28;20500;-80
2022/05/24 01:55:47;;;;;;;2.45;0.90;;;;;;;15.55;76.36;99399.03;5013976;28;20115;-80
2022/05/24 01:58:54;;;;;;;4.05;1.00;;;;;;;15.43;76.84;99396.69;5001849;28;20458;-80
2022/05/24 02:01:59;;;;;;;5.80;0.90;;;;;;;15.36;76.98;99393.78;5013394;28;20048;-80
2022/05/24 02:05:05;;;;;;;2.97;0.80;;;;;;;15.40;76.58;99404.88;5013756;28;20044;-80
2022/05/24 02:08:11;;;;;;;5.38;0.75;;;;;;;15.40;76.63;99403.06;5012163;28;20045;-80
2022/05/24 02:11:17;;;;;;;20.63;3.25;;;;;;;15.37;76.37;99413.88;5013807;28;20491;-80
2022/05/24 02:14:25;;;;;;;2.55;0.90;;;;;;;15.21;77.31;99408.31;5013906;28;20401;-80
2022/05/24 02:17:44;;;;;;;4.70;0.93;;;;;;;15.44;76.69;99393.06;5013247;28;20054;-80
2022/05/24 02:20:47;;;;;;;2.83;0.90;;;;;;;15.53;76.96;99382.53;5013369;28;20068;-80
2022/05/24 02:23:51;;;;;;;5.75;0.77;;;;;;;15.57;76.87;99377.81;5013089;28;20083;-80
2022/05/24 02:26:57;;;;;;;3.20;0.95;;;;;;;15.58;76.84;99379.50;5013207;28;20049;-80
2022/05/24 02:30:00;;;;;;;4.90;0.82;;;;;;;15.57;76.80;99376.03;5013445;28;20057;-80
2022/05/24 02:33:04;;;;;;;5.35;0.93;;;;;;;15.67;76.55;99369.97;5013115;28;20180;-80
2022/05/24 02:36:09;;;;;;;2.75;0.95;;;;;;;15.64;76.65;99380.75;5013000;28;20044;-80
2022/05/24 02:39:13;;;;;;;8.30;1.23;;;;;;;15.56;76.97;99379.63;5011126;28;20045;-80
2022/05/24 02:42:20;;;;;;;2.10;1.00;;;;;;;15.55;76.67;99382.41;5013016;28;20061;-80
2022/05/24 02:45:24;;;;;;;4.50;1.00;;;;;;;15.55;76.92;99385.88;5012861;28;20125;-80
2022/05/24 02:48:28;;;;;;;2.25;1.15;;;;;;;15.54;76.73;99381.59;5012742;28;20133;-81
2022/05/24 02:51:33;;;;;;;3.63;1.05;;;;;;;15.62;76.51;99375.59;5012699;28;20148;-81
2022/05/24 02:54:38;;;;;;;4.93;0.95;;;;;;;15.56;77.04;99371.72;5012996;28;20515;-81
2022/05/24 02:57:41;;;;;;;2.10;0.70;;;;;;;15.62;76.82;99377.41;5012822;28;20045;-81
2022/05/24 03:00:44;;;;;;;3.83;1.20;;;;;;;15.65;76.73;99371.84;5012828;28;20115;-81
2022/05/24 03:03:50;;;;;;;4.65;0.98;;;;;;;15.53;77.01;99365.91;5012772;28;20048;-80
2022/05/24 03:10:15;;;;;;;4.35;0.95;;;;;;;15.35;77.45;99357.88;5012490;28;20045;-80
2022/05/24 03:16:45;;;;;;;2.95;0.90;;;;;;;15.27;78.14;99344.56;5000207;28;20048;-80
2022/05/24 03:19:49;;;;;;;2.53;0.60;;;;;;;15.45;77.42;99339.44;5012330;28;20587;-80
2022/05/24 03:22:53;;;;;;;3.78;0.88;;;;;;;15.41;77.19;99332.78;5011412;28;20069;-80
2022/05/24 03:25:57;;;;;;;5.72;0.70;;;;;;;15.41;77.24;99331.00;5014007;28;20045;-80
2022/05/24 03:29:00;;;;;;;2.15;0.70;;;;;;;15.34;77.29;99330.69;5012313;28;20053;-80
2022/05/24 03:32:05;;;;;;;8.10;1.13;;;;;;;15.44;76.99;99324.59;4993349;28;20092;-80
2022/05/24 03:35:14;;;;;;;3.75;1.08;;;;;;;15.37;77.40;99332.22;5006417;28;20097;-80
2022/05/24 03:38:18;;;;;;;5.10;1.27;;;;;;;15.21;78.42;99330.16;4992249;28;20096;-80
2022/05/24 03:41:21;;;;;;;2.85;1.00;;;;;;;15.34;77.68;99335.13;4993246;28;20101;-80
2022/05/24 03:44:25;;;;;;;8.40;1.00;;;;;;;15.15;78.65;99337.78;5012142;28;20417;-80
2022/05/24 03:47:29;;;;;;;1.80;0.80;;;;;;;15.16;78.96;99342.91;5012019;28;20052;-80
2022/05/24 03:50:33;;;;;;;7.20;0.90;;;;;;;15.19;78.84;99342.63;4999697;28;20045;-80
2022/05/24 03:53:36;;;;;;;3.75;1.60;;;;;;;15.17;79.00;99336.66;5011285;28;20588;-80
2022/05/24 03:57:59;;;;;;;8.02;1.30;;;;;;;15.17;78.94;99343.75;5011659;28;20044;-80
2022/05/24 04:00:08;;;;;;;5.57;1.00;;;;;;;15.19;78.75;99331.25;5011957;28;20057;-80
2022/05/24 04:03:15;;;;;;;6.20;1.20;;;;;;;15.29;78.48;99332.09;5014306;28;20048;-80
2022/05/24 04:06:19;;;;;;;3.47;0.90;;;;;;;15.27;78.99;99347.19;5015918;28;20108;-80
2022/05/24 04:09:22;;;;;;;2.17;0.90;;;;;;;15.19;79.22;99353.16;5015985;28;20133;-80
2022/05/24 04:12:25;;;;;;;2.83;0.90;;;;;;;15.15;79.60;99357.03;5015332;28;20045;-80
2022/05/24 04:15:29;;;;;;;2.45;1.10;;;;;;;15.21;79.17;99360.91;5015667;28;20041;-80
2022/05/24 04:18:34;;;;;;;3.38;1.20;;;;;;;15.30;79.19;99355.66;5014980;28;20504;-80
2022/05/24 04:21:38;;;;;;;2.70;1.00;;;;;;;15.26;79.19;99353.44;5015615;28;20096;-80
2022/05/24 04:24:41;;;;;;;6.35;1.02;;;;;;;15.21;79.78;99363.56;5015901;28;20036;-80
2022/05/24 04:27:45;;;;;;;9.05;1.08;;;;;;;15.17;79.71;99365.63;5015746;28;20184;-80
2022/05/24 04:30:51;;;;;;;3.35;1.05;;;;;;;15.19;79.97;99376.88;5016313;28;20048;-80
2022/05/24 04:33:55;;;;;;;2.95;0.95;;;;;;;15.08;81.08;99380.44;5015057;28;20437;-80
2022/05/24 04:36:59;;;;;;;6.03;0.90;;;;;;;15.23;81.14;99382.69;5013250;28;20051;-80
2022/05/24 04:40:04;;;;;;;4.35;0.90;;;;;;;15.35;80.47;99387.69;5001424;28;20540;-80
2022/05/24 04:43:07;;;;;;;7.68;1.20;;;;;;;15.34;80.68;99393.06;4998972;28;20050;-80
2022/05/24 04:46:12;;;;;;;3.63;0.85;;;;;;;15.30;81.38;99394.31;4999220;28;20464;-80
2022/05/24 04:49:19;;;;;;;2.67;1.10;;;;;;;15.12;83.04;99399.44;5000466;28;20105;-79
2022/05/24 04:52:27;;;;;;;4.90;1.10;;;;;;;15.31;81.97;99404.72;4995648;28;20050;-79
2022/05/24 04:55:31;;;;;;;5.15;1.15;;;;;;;15.38;81.82;99409.44;4994543;28;20509;-79
2022/05/24 04:58:35;;;;;;;4.60;1.38;;;;;;;15.10;84.03;99412.75;4994173;28;20053;-79
2022/05/24 05:01:39;;;;;;;4.00;1.30;;;;;;;15.35;82.89;99421.09;4995344;28;20177;-79
2022/05/24 05:04:43;;;;;;;7.90;1.48;;;;;;;15.41;83.37;99415.28;4995457;28;20601;-79
2022/05/24 05:07:46;;;;;;;7.70;1.23;;;;;;;15.42;83.62;99409.03;4994933;28;20053;-79
2022/05/24 05:10:50;;;;;;;5.28;1.58;;;;;;;15.41;83.65;99410.00;4994923;28;20064;-79
2022/05/24 05:13:54;;;;;;;4.38;2.00;;;;;;;15.35;84.05;99418.47;4983054;28;20521;-79
2022/05/24 05:16:59;;;;;;;2.97;1.52;;;;;;;15.31;84.18;99422.31;4995068;28;20045;-79
2022/05/24 05:20:03;;;;;;;10.95;1.67;;;;;;;15.46;84.06;99428.84;4995212;28;20418;-79
2022/05/24 05:23:09;;;;;;;4.90;1.27;;;;;;;15.56;83.94;99427.03;4994833;28;20053;-79
2022/05/24 05:26:14;;;;;;;4.47;1.48;;;;;;;15.55;83.65;99435.09;4982333;28;20076;-79
2022/05/24 05:31:16;;;;;;;3.53;1.45;;;;;;;15.59;84.32;99439.94;4994768;28;20049;-79
2022/05/24 05:32:43;;;;;;;5.40;1.85;;;;;;;15.55;84.51;99448.28;4994946;28;20052;-79
2022/05/24 05:35:49;;;;;;;3.78;1.92;;;;;;;15.63;84.68;99442.31;5005543;28;20509;-79
2022/05/24 05:39:13;;;;;;;3.40;1.63;;;;;;;15.65;84.28;99453.53;5014594;28;20511;-79
2022/05/24 05:42:16;;;;;;;3.13;1.20;;;;;;;15.67;84.41;99470.91;5014555;28;20516;-79
2022/05/24 05:45:20;;;;;;;7.18;1.40;;;;;;;15.50;85.22;99506.63;5014576;28;20073;-79
2022/05/24 05:48:24;;;;;;;3.33;1.50;;;;;;;14.93;83.26;99515.22;5014703;28;20127;-79
2022/05/24 05:51:29;;;;;;;3.90;0.90;;;;;;;14.87;80.42;99521.84;5002757;28;20052;-79
2022/05/24 05:54:35;;;;;;;4.05;0.93;;;;;;;14.62;77.97;99529.22;5025347;28;20040;-80
2022/05/24 05:57:39;;;;;;;1.98;0.77;;;;;;;14.58;78.32;99522.56;5014706;28;20102;-78
2022/05/24 06:00:43;;;;;;;1.42;0.50;;;;;;;14.47;76.86;99530.47;5014457;28;20499;-79
2022/05/24 06:03:47;;;;;;;4.78;0.60;;;;;;;14.15;79.42;99525.28;5013267;28;20045;-78
2022/05/24 06:06:52;;;;;;;3.65;0.60;;;;;;;14.28;80.08;99525.09;4993709;28;20040;-78
2022/05/24 06:09:55;;;;;;;2.20;0.55;;;;;;;14.04;80.75;99527.94;4993922;28;20044;-79
2022/05/24 06:12:59;;;;;;;2.47;0.60;;;;;;;13.89;80.67;99544.03;4994511;28;20552;-79
2022/05/24 06:16:02;;;;;;;3.00;0.60;;;;;;;14.02;81.21;99525.47;4994936;28;20461;-78
2022/05/24 06:19:13;;;;;;;2.05;0.68;;;;;;;14.17;80.82;99529.44;4994515;28;20049;-79
2022/05/24 06:22:29;;;;;;;2.25;0.70;;;;;;;13.94;81.60;99512.09;4994440;28;20512;-79
2022/05/24 06:25:32;;;;;;;2.40;0.80;;;;;;;14.43;82.31;99513.28;4993883;28;20132;-79
2022/05/24 06:28:36;;;;;;;2.13;0.47;;;;;;;14.39;80.48;99517.16;4994393;28;20107;-78
2022/05/24 06:31:42;;;;;;;3.25;0.65;;;;;;;14.42;80.80;99512.47;4994340;28;20452;-79
2022/05/24 06:34:48;;;;;;;3.70;0.85;;;;;;;14.58;81.14;99550.63;5007101;28;20044;-79
2022/05/24 06:37:54;;;;;;;2.70;0.50;;;;;;;14.22;78.86;99563.22;5013794;28;20049;-79
2022/05/24 06:40:58;;;;;;;2.47;0.77;;;;;;;14.11;79.90;99577.28;5013706;28;20528;-78
2022/05/24 06:44:01;;;;;;;2.10;0.50;;;;;;;14.09;80.09;99594.97;5013586;28;20049;-78
2022/05/24 06:47:05;;;;;;;2.88;0.90;;;;;;;14.02;80.40;99609.56;5013230;28;20121;-77
2022/05/24 06:50:10;;;;;;;1.88;0.52;;;;;;;13.85;80.41;99623.25;5013102;28;20084;-79
2022/05/24 06:53:14;;;;;;;2.55;0.50;;;;;;;13.87;81.23;99622.13;5012717;28;20049;-79
2022/05/24 06:56:18;;;;;;;4.93;0.98;;;;;;;13.96;82.59;99610.88;5013192;28;20076;-78
2022/05/24 07:02:45;;;;;;;3.83;0.60;;;;;;;13.69;81.58;99623.63;5012095;28;20100;-78
2022/05/24 07:05:49;;;;;;;2.55;0.65;;;;;;;13.89;83.38;99633.38;5013111;28;20048;-78
2022/05/24 07:08:55;;;;;;;3.65;0.45;;;;;;;14.04;82.36;99628.69;5012807;28;20069;-78
2022/05/24 07:11:58;;;;;;;2.38;0.43;;;;;;;14.01;84.00;99628.94;5012594;28;20044;-78
2022/05/24 07:15:02;;;;;;;3.75;0.70;;;;;;;14.54;83.43;99631.59;5012706;28;20068;-78
2022/05/24 07:18:06;;;;;;;5.00;0.80;;;;;;;14.52;83.84;99628.28;5012718;28;20117;-78
2022/05/24 07:21:10;;;;;;;3.22;0.80;;;;;;;14.49;83.34;99652.19;5012542;28;20397;-78
2022/05/24 07:24:13;;;;;;;2.22;0.80;;;;;;;14.44;84.41;99641.19;5012522;28;20053;-78
2022/05/24 07:27:18;;;;;;;1.63;0.50;;;;;;;14.73;83.74;99637.97;5012416;28;20048;-78
2022/05/24 07:30:21;;;;;;;1.75;0.45;;;;;;;14.93;80.97;99646.81;5012496;28;20072;-76
2022/05/24 07:33:25;;;;;;;2.45;0.70;;;;;;;15.24;79.75;99642.41;5011559;28;20049;-75
2022/05/24 07:36:28;;;;;;;3.47;1.27;;;;;;;15.33;76.94;99639.00;5012242;28;20045;-75
2022/05/24 07:39:32;;;;;;;4.47;0.77;;;;;;;15.17;78.63;99644.75;5016587;28;20044;-75
2022/05/24 07:46:01;;;;;;;6.60;2.15;;;;;;;14.67;78.74;99630.59;5016601;28;20132;-75
2022/05/24 07:49:05;;;;;;;1.95;0.60;;;;;;;14.77;78.48;99636.75;5016335;28;20053;-76
2022/05/24 07:52:09;;;;;;;2.78;0.55;;;;;;;14.38;78.40;99646.94;5016374;28;20503;-76
2022/05/24 07:55:13;;;;;;;2.38;0.43;;;;;;;14.36;78.25;99659.41;5016115;28;20044;-75
2022/05/24 07:58:16;;;;;;;;;;;;;;;14.46;80.32;99670.00;5016653;28;20040;-75
2022/05/24 08:01:20;;;;;;;2.35;0.82;;;;;;;14.75;78.15;99684.25;5016206;28;19960;-75
2022/05/24 08:04:23;;;;;;;1.55;0.40;;;;;;;15.06;77.14;99695.69;5015758;28;20049;-75
2022/05/24 08:07:26;;;;;;;1.80;0.43;;;;;;;14.99;76.07;99688.41;5016021;28;20053;-76
2022/05/24 08:10:30;;;;;;;1.50;0.50;;;;;;;14.99;75.78;99696.31;5015980;28;20124;-75
2022/05/24 08:13:35;;;;;;;1.13;0.30;;;;;;;14.93;75.63;99700.28;5015994;28;20104;-76
2022/05/24 08:16:38;;;;;;;1.40;0.40;;;;;;;15.35;73.75;99698.50;5003976;28;20473;-75
2022/05/24 08:19:42;;;;;;;1.55;0.47;;;;;;;15.33;73.42;99707.47;5015704;28;20048;-76
2022/05/24 08:22:45;;;;;;;3.13;0.47;;;;;;;15.20;75.34;99706.84;5003512;28;20461;-75
2022/05/24 08:25:50;;;;;;;2.22;0.50;;;;;;;15.48;72.03;99700.91;5017240;28;20044;-75
2022/05/24 08:28:54;;;;;;;2.15;0.55;;;;;;;15.55;70.21;99709.94;5018036;28;20497;-75
2022/05/24 08:31:57;;;;;;;1.45;0.25;;;;;;;15.51;71.69;99715.63;5017838;28;20151;-76
2022/05/24 08:35:01;;;;;;;3.22;0.40;;;;;;;15.09;72.43;99713.00;5018569;28;20069;-76
2022/05/24 08:38:07;;;;;;;1.45;0.40;;;;;;;15.07;74.51;99733.38;5015736;28;20045;-75
2022/05/24 08:41:19;;;;;;;1.50;0.68;;;;;;;15.05;73.36;99728.22;5015675;28;20064;-75
2022/05/24 08:48:41;;;;;;;2.45;0.40;;;;;;;14.91;75.89;99754.88;5014573;28;20053;-76
2022/05/24 08:51:56;;;;;;;1.00;0.28;;;;;;;15.05;74.92;99756.34;5003152;28;20049;-75
2022/05/24 08:55:00;;;;;;;1.88;0.40;;;;;;;14.98;75.18;99761.31;5015145;28;20045;-76
2022/05/24 08:58:05;;;;;;;1.80;0.40;;;;;;;14.92;74.70;99780.22;5015322;28;20040;-75
2022/05/24 09:01:22;;;;;;;1.20;0.30;;;;;;;15.02;74.62;99789.03;5015242;28;20056;-76
2022/05/24 09:04:25;;;;;;;2.35;0.52;;;;;;;15.11;74.36;99777.75;4995181;28;20053;-75
2022/05/24 09:07:38;;;;;;;2.17;0.60;;;;;;;15.07;73.58;99781.59;4995117;28;20505;-75
2022/05/24 09:10:46;;;;;;;2.30;0.38;;;;;;;15.08;72.62;99785.91;4983258;28;20105;-75
2022/05/24 09:13:58;;;;;;;1.58;0.50;;;;;;;15.14;73.08;99781.09;4995231;28;20505;-75
2022/05/24 09:17:17;;;;;;;1.40;0.50;;;;;;;15.20;73.77;99765.63;4995181;28;20044;-76
2022/05/24 09:20:24;;;;;;;3.25;0.50;;;;;;;15.75;73.26;99771.50;4994887;28;20093;-76
2022/05/24 09:23:34;;;;;;;3.80;0.60;;;;;;;16.28;68.98;99778.38;4994388;28;20057;-76
2022/05/24 09:27:06;;;;;;;1.98;0.40;;;;;;;16.22;66.47;99789.47;4995148;28;20161;-76
2022/05/24 09:30:29;;;;;;;3.17;0.40;;;;;;;15.67;66.32;99804.78;4993522;28;20049;-76
2022/05/24 09:33:33;;;;;;;2.08;0.50;;;;;;;15.42;68.19;99808.59;5013129;28;20065;-75
2022/05/24 09:36:40;;;;;;;4.28;0.50;;;;;;;15.34;69.43;99814.50;5014275;28;20611;-75
2022/05/24 09:39:57;;;;;;;1.92;0.43;;;;;;;15.61;67.59;99819.25;5014287;28;20045;-76
2022/05/24 09:43:26;;;;;;;2.85;0.65;;;;;;;15.34;64.46;99811.88;5014248;28;20103;-75
2022/05/24 09:46:30;;;;;;;1.88;0.40;;;;;;;15.62;64.79;99813.03;5014069;28;20065;-76
2022/05/24 09:49:35;;;;;;;2.03;0.47;;;;;;;15.41;64.19;99838.53;5014105;28;20046;-76
2022/05/24 09:52:38;;;;;;;3.72;0.65;;;;;;;15.85;62.90;99823.44;5014001;28;20116;-75
2022/05/24 09:55:47;;;;;;;4.43;0.90;;;;;;;15.91;62.13;99846.66;5013662;28;20671;-75
2022/05/24 09:58:59;;;;;;;2.85;0.50;;;;;;;15.95;59.75;99824.31;4993356;28;20489;-76
2022/05/24 10:02:22;;;;;;;4.15;0.70;;;;;;;16.21;58.76;99830.84;5011710;28;20044;-76
2022/05/24 10:05:25;;;;;;;6.72;0.50;;;;;;;15.96;59.52;99831.28;5012049;28;20520;-76
2022/05/24 10:08:35;;;;;;;5.45;0.60;;;;;;;15.77;59.99;99832.00;5012750;28;20104;-76
2022/05/24 10:11:41;;;;;;;3.92;0.70;;;;;;;15.42;61.30;99827.06;5013346;28;20040;-76
2022/05/24 10:15:06;;;;;;;5.28;0.88;;;;;;;15.71;60.10;99825.44;4993901;28;20096;-75
2022/05/24 10:18:28;;;;;;;3.97;0.50;;;;;;;15.77;60.03;99826.75;5000624;28;20048;-76
2022/05/24 10:21:39;;;;;;;2.45;0.60;;;;;;;16.09;60.49;99829.25;5013324;28;20196;-75
2022/05/24 10:24:49;;;;;;;3.90;0.50;;;;;;;16.12;58.07;99820.25;4992119;28;20054;-75
2022/05/24 10:27:53;;;;;;;6.25;0.50;;;;;;;16.04;59.45;99824.34;4992787;28;20524;-75
2022/05/24 10:31:03;;;;;;;5.18;1.50;;;;;;;16.43;58.23;99823.66;4992398;28;20418;-75
2022/05/24 10:38:34;;;;;;;4.15;0.60;;;;;;;16.62;56.35;99828.16;4976987;28;20473;-75
2022/05/24 10:42:11;;;;;;;2.17;0.50;;;;;;;16.80;56.46;99821.28;4973182;28;20069;-76
2022/05/24 10:45:17;;;;;;;6.25;0.88;;;;;;;17.08;55.25;99830.19;4973823;28;20077;-76
2022/05/24 10:48:58;;;;;;;5.30;1.02;;;;;;;16.71;54.72;99835.25;4973942;28;20186;-76
2022/05/24 10:52:11;;;;;;;4.85;1.20;;;;;;;17.10;54.67;99844.09;4969485;28;20053;-76
2022/05/24 10:55:23;;;;;;;7.78;1.92;;;;;;;17.35;59.42;99820.72;4973799;28;20510;-76
2022/05/24 10:58:32;;;;;;;3.42;1.05;;;;;;;17.59;53.98;99833.50;4990604;28;20092;-76
2022/05/24 11:01:45;;;;;;;1.77;0.47;;;;;;;17.11;52.85;99829.09;4989441;28;20048;-77
2022/05/24 11:05:08;;;;;;;5.88;1.45;;;;;;;17.17;52.80;99839.94;4990691;28;20387;-76
2022/05/24 11:08:35;;;;;;;2.90;0.68;;;;;;;16.79;53.06;99856.56;4991055;28;20053;-76
2022/05/24 11:11:59;;;;;;;2.92;0.90;;;;;;;16.60;54.17;99845.94;4991609;28;20496;-76
2022/05/24 11:15:18;;;;;;;4.38;0.80;;;;;;;16.71;53.48;99841.38;4992472;28;20121;-76
2022/05/24 11:18:24;;;;;;;3.30;0.70;;;;;;;16.83;53.44;99847.41;4991640;28;20072;-76
2022/05/24 11:21:35;;;;;;;3.58;0.63;;;;;;;16.89;52.97;99852.13;4990359;28;20093;-75
2022/05/24 11:24:44;;;;;;;1.98;0.57;;;;;;;16.90;51.84;99843.25;4991431;28;20077;-75
2022/05/24 11:27:56;;;;;;;2.45;0.40;;;;;;;16.92;52.09;99829.91;4970958;28;20513;-76
2022/05/24 11:31:40;;;;;;;4.97;0.88;;;;;;;17.15;52.54;99826.00;4989302;28;20041;-76
2022/05/24 11:35:21;;;;;;;6.05;0.85;;;;;;;17.15;51.50;99836.59;4989641;28;20460;-76
2022/05/24 11:38:28;;;;;;;1.60;0.25;;;;;;;17.14;52.98;99824.34;4988421;28;20504;-75
2022/05/24 11:41:32;;;;;;;1.98;0.43;;;;;;;17.52;51.17;99830.59;4990895;28;20057;-76
2022/05/24 11:44:37;;;;;;;2.70;0.47;;;;;;;17.77;50.01;99847.69;4990452;28;20068;-75
2022/05/24 11:47:41;;;;;;;3.40;0.60;;;;;;;17.82;49.73;99841.94;4991058;28;20069;-76
2022/05/24 11:50:47;;;;;;;2.08;0.30;;;;;;;17.93;50.22;99840.94;4988075;28;20136;-76
2022/05/24 11:53:51;;;;;;;3.53;0.40;;;;;;;17.52;51.28;99841.16;4990389;28;20061;-76
2022/05/24 11:57:00;;;;;;;3.60;0.47;;;;;;;17.41;51.57;99847.41;4990159;28;20557;-76
2022/05/24 12:00:07;;;;;;;1.75;0.38;;;;;;;17.14;53.36;99860.50;4989752;28;20395;-78
2022/05/24 12:10:08;;;;;;;3.38;0.47;;;;;;;17.12;49.00;99863.28;4991567;28;20080;-80
2022/05/24 12:13:18;;;;;;;3.38;1.02;;;;;;;16.84;49.77;99864.91;4990567;28;20145;-79
2022/05/24 12:16:42;;;;;;;3.95;0.60;;;;;;;17.19;49.25;99866.19;4991085;28;20073;-79
2022/05/24 12:19:48;;;;;;;2.65;0.35;;;;;;;16.96;50.66;99878.84;4989680;28;20120;-79
2022/05/24 12:23:14;;;;;;;1.73;0.57;;;;;;;17.12;50.88;99875.66;5003073;28;20301;-79
2022/05/24 12:26:21;;;;;;;2.05;0.40;;;;;;;17.04;52.35;99876.34;5013580;28;20181;-79
2022/05/24 12:29:25;;;;;;;2.08;0.55;;;;;;;16.87;51.67;99888.41;4997421;28;20057;-79
2022/05/24 12:32:33;;;;;;;3.20;0.50;;;;;;;17.18;50.79;99888.31;5008410;28;20476;-80
2022/05/24 12:35:37;;;;;;;2.10;0.52;;;;;;;17.43;50.47;99885.13;5015567;28;20049;-80
2022/05/24 12:38:48;;;;;;;3.22;0.65;;;;;;;17.69;49.57;99889.00;5016475;28;20064;-80
2022/05/24 12:41:56;;;;;;;2.97;0.40;;;;;;;17.74;49.82;99884.09;5015867;28;20048;-80
2022/05/24 12:45:05;;;;;;;1.60;0.35;;;;;;;17.93;49.72;99886.72;5012145;28;20056;-80
2022/05/24 12:48:18;;;;;;;4.95;0.68;;;;;;;17.84;51.57;99885.78;5012831;28;20053;-80
2022/05/24 12:51:21;;;;;;;2.30;0.70;;;;;;;17.49;51.79;99894.31;5012756;28;20390;-80
2022/05/24 12:54:32;;;;;;;2.85;0.50;;;;;;;16.89;52.76;99910.22;5013313;28;20052;-79
2022/05/24 12:57:41;;;;;;;2.20;0.40;;;;;;;17.23;51.96;99907.25;5014844;28;20426;-79
2022/05/24 13:00:45;;;;;;;2.92;0.82;;;;;;;17.00;52.24;99908.44;5013390;28;20052;-81
2022/05/24 13:04:01;;;;;;;2.80;0.68;;;;;;;17.68;51.91;99906.66;5014551;28;20052;-79
2022/05/24 13:07:37;;;;;;;1.92;0.60;;;;;;;17.97;51.27;99895.25;5011033;28;20421;-77
2022/05/24 13:10:41;;;;;;;2.97;0.85;;;;;;;18.17;49.23;99907.44;5015541;28;20048;-80
2022/05/24 13:13:46;;;;;;;2.28;0.85;;;;;;;18.45;46.78;99908.31;5015610;28;20045;-80
2022/05/24 13:16:49;;;;;;;4.22;0.40;;;;;;;18.34;47.48;99893.41;5015215;28;20076;-79
2022/05/24 13:20:06;;;;;;;5.60;1.00;;;;;;;18.40;48.20;99880.59;5015716;28;20137;-79
2022/05/24 13:23:15;;;;;;;4.45;0.82;;;;;;;18.99;46.63;99877.50;5014971;28;20069;-79
2022/05/24 13:26:19;;;;;;;2.17;0.50;;;;;;;19.55;45.15;99880.81;5015069;28;20044;-79
2022/05/24 13:29:24;;;;;;;4.07;0.77;;;;;;;20.26;43.02;99881.63;5014924;28;20049;-79
2022/05/24 13:35:50;;;;;;;1.55;0.40;;;;;;;19.63;43.51;99886.19;5012594;28;20048;-81
2022/05/24 13:39:03;;;;;;;1.58;0.32;;;;;;;19.53;43.69;99880.16;5014960;28;20041;-80
2022/05/24 13:42:11;;;;;;;1.63;0.40;;;;;;;19.41;42.38;99886.69;5017744;28;20052;-80
2022/05/24 13:45:19;;;;;;;2.15;0.60;;;;;;;19.25;42.68;99884.72;5017293;28;20052;-80
2022/05/24 13:48:26;;;;;;;3.95;0.52;;;;;;;19.33;42.81;99884.78;5018028;28;20073;-79
2022/05/24 13:51:32;;;;;;;3.97;0.30;;;;;;;19.57;43.00;99893.94;5014625;28;20107;-79
2022/05/24 13:54:37;;;;;;;1.02;0.57;;;;;;;19.55;40.97;99902.03;5015090;28;20092;-79
2022/05/24 13:57:56;;;;;;;1.48;0.22;;;;;;;19.46;40.70;99906.47;5015484;28;20060;-80
2022/05/24 14:01:22;;;;;;;2.63;0.50;;;;;;;19.38;40.95;99913.50;5013782;28;20045;-80
2022/05/24 14:04:28;;;;;;;2.08;0.40;;;;;;;18.98;41.80;99920.88;5012820;28;20126;-81
2022/05/24 14:07:31;;;;;;;3.17;0.68;;;;;;;19.01;41.74;99917.09;5013659;28;20565;-81
2022/05/24 14:10:37;;;;;;;2.88;0.50;;;;;;;19.82;39.33;99926.81;5011966;28;20044;-80
2022/05/24 14:13:41;;;;;;;2.45;0.50;;;;;;;20.59;37.47;99919.84;5009337;28;20521;-84
2022/05/24 14:16:46;;;;;;;3.92;0.60;;;;;;;21.45;36.51;99919.59;4993852;28;20148;-80
2022/05/24 14:19:50;;;;;;;4.18;0.60;;;;;;;20.34;39.11;99916.19;4999816;28;20053;-80
2022/05/24 14:22:53;;;;;;;1.48;0.40;;;;;;;19.81;41.37;99928.63;5011570;28;20061;-80
2022/05/24 14:25:57;;;;;;;4.07;0.73;;;;;;;20.54;40.22;99922.13;5010927;28;20545;-77
2022/05/24 14:29:01;;;;;;;3.90;0.43;;;;;;;20.28;40.42;99914.19;4982589;28;20465;-78
2022/05/24 14:32:04;;;;;;;1.63;0.22;;;;;;;18.40;43.26;99915.00;5009058;28;20080;-79
2022/05/24 14:35:10;;;;;;;2.92;0.60;;;;;;;20.18;40.92;99920.44;5009176;28;20084;-80
2022/05/24 14:38:15;;;;;;;2.97;0.40;;;;;;;19.90;40.82;99926.88;5009942;28;20103;-79
2022/05/24 14:41:21;;;;;;;1.60;0.30;;;;;;;19.91;40.89;99920.56;5000174;28;20040;-80
2022/05/24 14:44:29;;;;;;;2.08;0.35;;;;;;;19.24;42.42;99910.38;5011672;28;20068;-79
2022/05/24 14:47:33;;;;;;;1.70;0.30;;;;;;;19.42;41.37;99925.44;5010697;28;20409;-79
2022/05/24 14:50:38;;;;;;;1.35;0.32;;;;;;;21.75;36.04;99914.59;5011100;28;20052;-80
2022/05/24 14:53:42;;;;;;;1.92;0.63;;;;;;;22.08;35.38;99930.53;5011321;28;20044;-80
2022/05/24 14:56:46;;;;;;;3.40;0.40;;;;;;;23.18;32.34;99916.31;5000921;28;20084;-74
2022/05/24 14:59:51;;;;;;;1.48;0.32;;;;;;;23.21;30.77;99921.31;5010106;28;20145;-77
2022/05/24 15:02:54;;;;;;;1.40;0.30;;;;;;;22.18;32.97;99928.56;4998047;28;20052;-82
2022/05/24 15:06:00;;;;;;;6.70;0.40;;;;;;;21.68;34.64;99921.59;5007169;28;20040;-70
2022/05/24 15:15:51;;;;;;;;;;;;;;;21.29;35.15;99928.34;5010964;28;20045;-82
2022/05/24 15:18:54;;;;;;;2.75;0.65;;;;;;;21.52;34.78;99938.38;5011397;28;19920;-83
2022/05/24 15:22:00;;;;;;;2.28;0.60;;;;;;;21.86;34.13;99940.88;5008855;28;20597;-82
2022/05/24 15:25:08;;;;;;;2.70;0.50;;;;;;;21.05;34.26;99949.56;5009944;28;20049;-83
2022/05/24 15:28:14;;;;;;;1.10;0.30;;;;;;;20.69;35.66;99948.94;5010775;28;20069;-83